createdAt,value
2018-11-26T00:00:35.892Z,81.80
2018-11-26T00:03:10.201Z,81.50
2018-11-26T00:05:39.508Z,81.80
2018-11-26T00:08:12.140Z,82.20
2018-11-26T00:12:00.402Z,81.50
2018-11-26T00:14:28.819Z,81.60
2018-11-26T00:16:57.127Z,81.80
2018-11-26T00:19:25.596Z,82.70
2018-11-26T00:21:53.978Z,82.80
2018-11-26T00:24:22.199Z,82.90
2018-11-26T00:26:50.532Z,81.50
2018-11-26T00:29:18.813Z,81.60
2018-11-26T00:31:47.098Z,82.00
2018-11-26T00:34:16.735Z,81.60
2018-11-26T00:36:45.003Z,81.00
2018-11-26T00:39:13.472Z,82.30
2018-11-26T00:41:41.912Z,82.20
2018-11-26T00:44:10.326Z,82.30
2018-11-26T00:46:38.663Z,82.40
2018-11-26T00:49:06.939Z,81.60
2018-11-26T00:51:35.333Z,82.10
2018-11-26T00:54:03.696Z,82.40
2018-11-26T00:56:31.953Z,82.00
2018-11-26T00:59:00.316Z,82.90
2018-11-26T01:01:28.604Z,83.20
2018-11-26T01:03:57.003Z,83.00
2018-11-26T01:06:25.585Z,82.40
2018-11-26T01:08:53.927Z,82.00
2018-11-26T01:11:22.185Z,83.00
2018-11-26T01:13:50.537Z,83.10
2018-11-26T01:16:18.840Z,83.10
2018-11-26T01:18:47.372Z,83.00
2018-11-26T01:21:15.631Z,83.20
2018-11-26T01:23:43.879Z,82.00
2018-11-26T01:26:12.259Z,82.20
2018-11-26T01:28:40.579Z,83.30
2018-11-26T01:31:08.921Z,82.00
2018-11-26T01:33:37.117Z,83.10
2018-11-26T01:36:05.522Z,82.60
2018-11-26T01:38:33.828Z,82.40
2018-11-26T01:41:02.187Z,81.50
2018-11-26T01:43:30.503Z,82.80
2018-11-26T01:45:58.768Z,81.90
2018-11-26T01:48:27.150Z,81.50
2018-11-26T01:50:55.340Z,81.70
2018-11-26T01:53:23.780Z,82.50
2018-11-26T01:55:52.203Z,81.30
2018-11-26T01:58:20.464Z,82.50
2018-11-26T02:00:48.907Z,82.60
2018-11-26T02:03:17.433Z,81.50
2018-11-26T02:05:45.750Z,81.40
2018-11-26T02:08:14.150Z,82.20
2018-11-26T02:10:42.472Z,82.00
2018-11-26T02:13:10.834Z,81.00
2018-11-26T02:15:41.404Z,81.20
2018-11-26T02:18:10.384Z,81.50
2018-11-26T02:20:38.688Z,82.10
2018-11-26T02:23:07.401Z,82.10
2018-11-26T02:25:35.792Z,82.20
2018-11-26T02:28:04.272Z,81.60
2018-11-26T02:30:33.056Z,80.20
2018-11-26T02:33:01.413Z,80.90
2018-11-26T02:35:29.929Z,80.90
2018-11-26T02:37:59.455Z,83.10
2018-11-26T02:40:31.042Z,82.30
2018-11-26T02:42:59.638Z,82.80
2018-11-26T02:45:28.960Z,81.70
2018-11-26T02:47:57.671Z,81.30
2018-11-26T02:50:26.212Z,81.60
2018-11-26T02:52:55.295Z,81.90
2018-11-26T02:55:23.851Z,82.00
2018-11-26T02:57:52.179Z,82.00
2018-11-26T03:00:21.255Z,81.80
2018-11-26T03:02:49.845Z,83.00
2018-11-26T03:05:25.517Z,82.50
2018-11-26T03:07:54.235Z,82.10
2018-11-26T03:10:23.107Z,82.70
2018-11-26T03:12:51.957Z,82.20
2018-11-26T03:15:20.393Z,82.90
2018-11-26T03:17:48.967Z,83.10
2018-11-26T03:20:17.365Z,82.90
2018-11-26T03:22:45.751Z,82.30
2018-11-26T03:25:14.257Z,83.70
2018-11-26T03:27:42.890Z,84.30
2018-11-26T03:30:18.006Z,84.10
2018-11-26T03:32:47.011Z,84.00
2018-11-26T03:35:15.338Z,83.80
2018-11-26T03:37:43.872Z,83.60
2018-11-26T03:40:13.594Z,83.30
2018-11-26T03:42:42.760Z,84.10
2018-11-26T03:45:14.695Z,83.20
2018-11-26T03:47:43.322Z,84.50
2018-11-26T03:50:13.042Z,84.50
2018-11-26T03:52:43.007Z,84.30
2018-11-26T03:55:12.319Z,83.40
2018-11-26T03:57:41.123Z,83.20
2018-11-26T04:00:13.396Z,83.20
2018-11-26T04:02:42.060Z,84.40
2018-11-26T04:05:11.255Z,84.60
2018-11-26T04:07:39.884Z,84.00
2018-11-26T04:10:11.411Z,84.60
2018-11-26T04:12:40.409Z,85.50
2018-11-26T04:15:11.234Z,84.40
2018-11-26T04:17:41.666Z,85.40
2018-11-26T04:20:10.298Z,84.80
2018-11-26T04:22:38.923Z,85.70
2018-11-26T04:25:08.575Z,85.00
2018-11-26T04:27:36.989Z,86.00
2018-11-26T04:30:08.332Z,85.30
2018-11-26T04:32:37.190Z,85.20
2018-11-26T04:35:06.244Z,85.00
2018-11-26T04:37:34.652Z,86.20
2018-11-26T04:40:03.051Z,86.50
2018-11-26T04:42:31.471Z,85.30
2018-11-26T04:44:59.829Z,86.10
2018-11-26T04:47:28.088Z,86.50
2018-11-26T04:49:56.500Z,87.00
2018-11-26T04:52:24.758Z,87.30
2018-11-26T04:54:53.056Z,87.30
2018-11-26T04:57:21.428Z,86.80
2018-11-26T04:59:50.591Z,87.50
2018-11-26T05:02:18.938Z,87.00
2018-11-26T05:04:47.283Z,87.10
2018-11-26T05:07:15.646Z,86.40
2018-11-26T05:09:43.839Z,85.90
2018-11-26T05:12:12.194Z,86.00
2018-11-26T05:14:40.449Z,86.00
2018-11-26T05:17:08.823Z,87.10
2018-11-26T05:19:37.094Z,85.10
2018-11-26T05:22:05.699Z,87.00
2018-11-26T05:24:34.098Z,86.30
2018-11-26T05:27:02.371Z,86.40
2018-11-26T05:29:30.607Z,85.50
2018-11-26T05:31:59.085Z,85.20
2018-11-26T05:34:27.405Z,86.40
2018-11-26T05:36:57.971Z,86.20
2018-11-26T05:39:26.784Z,86.40
2018-11-26T05:41:55.381Z,86.70
2018-11-26T05:44:24.105Z,85.50
2018-11-26T05:46:53.117Z,86.30
2018-11-26T05:49:22.921Z,86.50
2018-11-26T05:51:50.929Z,85.40
2018-11-26T05:54:19.329Z,87.20
2018-11-26T05:56:48.351Z,87.10
2018-11-26T05:59:16.681Z,86.00
2018-11-26T06:01:45.216Z,87.20
2018-11-26T06:04:13.416Z,87.90
2018-11-26T06:06:41.627Z,86.10
2018-11-26T06:09:10.989Z,86.60
2018-11-26T06:11:40.445Z,86.80
2018-11-26T06:14:08.674Z,87.00
2018-11-26T06:16:37.411Z,86.00
2018-11-26T06:19:05.816Z,86.90
2018-11-26T06:21:34.040Z,86.10
2018-11-26T06:24:02.370Z,87.10
2018-11-26T06:26:30.673Z,85.70
2018-11-26T06:28:58.868Z,85.50
2018-11-26T06:31:27.162Z,85.60
2018-11-26T06:33:55.361Z,86.60
2018-11-26T06:36:23.534Z,85.20
2018-11-26T06:38:51.837Z,86.70
2018-11-26T06:41:20.297Z,85.40
2018-11-26T06:43:48.496Z,87.20
2018-11-26T06:46:16.697Z,87.00
2018-11-26T06:48:49.962Z,87.00
2018-11-26T06:51:18.264Z,87.10
2018-11-26T06:53:47.607Z,86.90
2018-11-26T06:56:15.800Z,86.30
2018-11-26T06:58:44.053Z,87.30
2018-11-26T07:01:12.559Z,86.40
2018-11-26T07:03:40.831Z,86.90
2018-11-26T07:06:09.129Z,87.10
2018-11-26T07:08:37.522Z,85.20
2018-11-26T07:11:06.126Z,86.80
2018-11-26T07:13:34.359Z,86.60
2018-11-26T07:16:02.652Z,86.80
2018-11-26T07:18:30.919Z,85.90
2018-11-26T07:20:59.220Z,86.90
2018-11-26T07:23:27.446Z,86.10
2018-11-26T07:25:55.888Z,86.80
2018-11-26T07:28:24.092Z,87.00
2018-11-26T07:30:52.264Z,86.10
2018-11-26T07:33:20.681Z,87.10
2018-11-26T07:35:48.843Z,86.30
2018-11-26T07:38:17.131Z,87.70
2018-11-26T07:40:45.388Z,88.90
2018-11-26T07:43:14.198Z,88.20
2018-11-26T07:45:42.432Z,88.40
2018-11-26T07:48:11.872Z,87.80
2018-11-26T07:50:40.187Z,87.50
2018-11-26T07:53:10.208Z,86.80
2018-11-26T07:55:39.720Z,87.70
2018-11-26T07:58:08.003Z,86.30
2018-11-26T08:00:36.270Z,86.40
2018-11-26T08:03:04.869Z,86.30
2018-11-26T08:05:33.064Z,87.30
2018-11-26T08:08:01.461Z,86.80
2018-11-26T08:10:29.665Z,86.60
2018-11-26T08:12:57.976Z,86.80
2018-11-26T08:15:27.576Z,86.40
2018-11-26T08:17:55.983Z,85.90
2018-11-26T08:20:24.226Z,86.70
2018-11-26T08:22:52.404Z,86.70
2018-11-26T08:25:21.745Z,87.00
2018-11-26T08:27:50.560Z,86.90
2018-11-26T08:30:24.454Z,86.60
2018-11-26T08:32:58.175Z,86.50
2018-11-26T08:35:26.713Z,86.20
2018-11-26T08:38:01.318Z,87.00
2018-11-26T08:40:30.868Z,86.90
2018-11-26T08:43:15.304Z,85.80
2018-11-26T08:45:52.106Z,84.90
2018-11-26T08:48:25.513Z,86.90
2018-11-26T08:50:54.945Z,86.30
2018-11-26T08:53:23.805Z,85.40
2018-11-26T08:55:52.186Z,86.30
2018-11-26T08:58:20.625Z,87.30
2018-11-26T09:00:54.365Z,87.50
2018-11-26T09:03:22.933Z,87.40
2018-11-26T09:05:59.973Z,87.60
2018-11-26T09:08:29.671Z,87.50
2018-11-26T09:10:58.819Z,87.90
2018-11-26T09:13:27.847Z,86.20
2018-11-26T09:15:56.468Z,86.00
2018-11-26T09:18:24.739Z,87.10
2018-11-26T09:20:53.288Z,86.70
2018-11-26T09:23:21.602Z,85.40
2018-11-26T09:25:49.966Z,87.30
2018-11-26T09:28:18.207Z,87.50
2018-11-26T09:30:46.533Z,86.30
2018-11-26T09:33:14.994Z,86.80
2018-11-26T09:35:44.077Z,87.70
2018-11-26T09:38:13.109Z,87.50
2018-11-26T09:40:41.589Z,86.50
2018-11-26T09:43:09.859Z,87.60
2018-11-26T09:45:40.459Z,87.00
2018-11-26T09:48:06.799Z,87.60
2018-11-26T09:50:35.178Z,86.70
2018-11-26T09:53:03.635Z,86.50
2018-11-26T09:55:32.073Z,86.50
2018-11-26T09:58:01.474Z,87.20
2018-11-26T10:00:31.968Z,87.40
2018-11-26T10:03:02.550Z,86.30
2018-11-26T10:05:31.131Z,86.60
2018-11-26T10:08:00.877Z,86.20
2018-11-26T10:10:30.166Z,86.50
2018-11-26T10:12:58.632Z,86.70
2018-11-26T10:15:27.899Z,86.60
2018-11-26T10:17:56.527Z,86.10
2018-11-26T10:20:24.921Z,87.40
2018-11-26T10:22:54.804Z,86.10
2018-11-26T10:25:23.707Z,87.00
2018-11-26T10:27:52.081Z,86.20
2018-11-26T10:30:23.248Z,85.60
2018-11-26T10:32:52.111Z,85.30
2018-11-26T10:35:20.866Z,86.00
2018-11-26T10:37:49.315Z,85.90
2018-11-26T10:40:23.964Z,85.40
2018-11-26T10:42:52.430Z,84.80
2018-11-26T10:45:22.683Z,84.60
2018-11-26T10:47:51.169Z,85.60
2018-11-26T10:50:21.695Z,85.80
2018-11-26T10:52:55.473Z,85.80
2018-11-26T10:55:29.331Z,84.50
2018-11-26T10:57:57.945Z,84.20
2018-11-26T11:00:31.890Z,85.40
2018-11-26T11:03:00.453Z,85.70
2018-11-26T11:05:29.053Z,85.60
2018-11-26T11:07:57.567Z,85.70
2018-11-26T11:10:30.885Z,84.90
2018-11-26T11:12:59.448Z,84.60
2018-11-26T11:15:28.049Z,83.90
2018-11-26T11:17:57.357Z,84.90
2018-11-26T11:20:27.471Z,83.90
2018-11-26T11:22:55.922Z,84.90
2018-11-26T11:25:26.728Z,82.90
2018-11-26T11:27:56.322Z,82.70
2018-11-26T11:30:28.963Z,83.30
2018-11-26T11:32:57.603Z,82.30
2018-11-26T11:35:26.186Z,82.50
2018-11-26T11:37:55.978Z,81.20
2018-11-26T11:40:29.752Z,81.50
2018-11-26T11:43:00.079Z,81.50
2018-11-26T11:45:30.188Z,80.80
2018-11-26T11:47:59.335Z,81.70
2018-11-26T11:50:28.730Z,82.10
2018-11-26T11:53:00.002Z,82.50
2018-11-26T11:55:28.467Z,81.60
2018-11-26T11:57:58.865Z,81.50
2018-11-26T12:00:35.439Z,81.90
2018-11-26T12:03:10.808Z,80.00
2018-11-26T12:05:39.193Z,82.10
2018-11-26T12:08:08.258Z,80.80
2018-11-26T12:10:36.741Z,81.40
2018-11-26T12:13:06.983Z,81.10
2018-11-26T12:15:37.123Z,81.80
2018-11-26T12:18:06.658Z,80.70
2018-11-26T12:20:35.694Z,79.40
2018-11-26T12:23:04.306Z,79.80
2018-11-26T12:25:32.669Z,79.30
2018-11-26T12:28:01.197Z,80.00
2018-11-26T12:30:31.735Z,79.80
2018-11-26T12:33:00.121Z,79.80
2018-11-26T12:35:28.510Z,78.60
2018-11-26T12:37:56.862Z,78.20
2018-11-26T12:40:26.088Z,79.50
2018-11-26T12:42:57.220Z,78.20
2018-11-26T12:45:28.397Z,79.30
2018-11-26T12:47:57.182Z,78.50
2018-11-26T12:50:25.694Z,79.40
2018-11-26T12:52:54.454Z,77.90
2018-11-26T12:55:23.860Z,77.30
2018-11-26T12:57:58.436Z,78.00
2018-11-26T13:00:28.476Z,78.10
2018-11-26T13:03:01.097Z,77.40
2018-11-26T13:05:29.561Z,77.90
2018-11-26T13:07:57.818Z,78.00
2018-11-26T13:10:26.256Z,78.00
2018-11-26T13:12:54.594Z,78.50
2018-11-26T13:15:25.136Z,77.70
2018-11-26T13:17:54.240Z,77.70
2018-11-26T13:20:25.020Z,77.30
2018-11-26T13:22:54.062Z,77.10
2018-11-26T13:25:25.982Z,77.50
2018-11-26T13:27:57.354Z,77.90
2018-11-26T13:30:28.650Z,77.50
2018-11-26T13:32:58.982Z,75.80
2018-11-26T13:35:27.425Z,75.80
2018-11-26T13:37:55.916Z,77.30
2018-11-26T13:40:24.290Z,77.30
2018-11-26T13:42:52.864Z,76.70
2018-11-26T13:45:26.232Z,77.10
2018-11-26T13:47:54.712Z,77.40
2018-11-26T13:50:26.987Z,77.70
2018-11-26T13:52:58.865Z,77.80
2018-11-26T13:55:28.299Z,78.00
2018-11-26T13:57:59.116Z,77.50
2018-11-26T14:00:29.442Z,77.20
2018-11-26T14:02:57.728Z,77.60
2018-11-26T14:05:26.247Z,77.90
2018-11-26T14:07:54.708Z,78.10
2018-11-26T14:10:25.831Z,78.10
2018-11-26T14:13:15.678Z,78.80
2018-11-26T14:15:44.061Z,78.10
2018-11-26T14:18:12.481Z,78.40
2018-11-26T14:20:40.807Z,77.80
2018-11-26T14:23:09.226Z,79.50
2018-11-26T14:25:38.238Z,79.60
2018-11-26T14:28:06.698Z,79.30
2018-11-26T14:30:35.036Z,79.30
2018-11-26T14:33:03.489Z,79.90
2018-11-26T14:35:31.921Z,79.70
2018-11-26T14:38:02.862Z,79.30
2018-11-26T14:40:39.595Z,79.00
2018-11-26T14:43:08.161Z,79.60
2018-11-26T14:45:36.842Z,79.60
2018-11-26T14:48:05.909Z,79.10
2018-11-26T14:50:34.279Z,79.30
2018-11-26T14:53:05.061Z,80.30
2018-11-26T14:55:36.431Z,78.80
2018-11-26T14:58:05.145Z,80.20
2018-11-26T15:00:34.495Z,79.00
2018-11-26T15:03:03.053Z,80.10
2018-11-26T15:05:31.725Z,78.90
2018-11-26T15:08:00.289Z,79.90
2018-11-26T15:10:28.748Z,80.00
2018-11-26T15:12:57.410Z,79.00
2018-11-26T15:15:26.738Z,78.70
2018-11-26T15:17:55.258Z,80.10
2018-11-26T15:20:28.131Z,80.30
2018-11-26T15:22:58.798Z,80.10
2018-11-26T15:25:32.853Z,80.60
2018-11-26T15:28:06.632Z,79.40
2018-11-26T15:30:35.813Z,80.30
2018-11-26T15:33:05.841Z,79.60
2018-11-26T15:35:34.677Z,79.60
2018-11-26T15:38:04.487Z,79.40
2018-11-26T15:40:33.401Z,80.50
2018-11-26T15:43:02.092Z,79.50
2018-11-26T15:45:30.769Z,79.40
2018-11-26T15:48:02.270Z,79.50
2018-11-26T15:50:31.730Z,80.30
2018-11-26T15:53:00.774Z,79.50
2018-11-26T15:55:29.906Z,79.50
2018-11-26T15:57:59.227Z,80.30
2018-11-26T16:00:28.717Z,80.00
2018-11-26T16:02:58.060Z,79.50
2018-11-26T16:05:29.622Z,80.30
2018-11-26T16:08:03.438Z,80.90
2018-11-26T16:10:32.684Z,80.20
2018-11-26T16:13:02.968Z,80.80
2018-11-26T16:15:40.802Z,79.70
2018-11-26T16:18:15.218Z,81.20
2018-11-26T16:20:45.521Z,80.90
2018-11-26T16:23:14.282Z,80.50
2018-11-26T16:25:45.942Z,80.50
2018-11-26T16:28:17.704Z,81.00
2018-11-26T16:30:46.395Z,81.40
2018-11-26T16:33:15.208Z,81.20
2018-11-26T16:35:49.114Z,80.70
2018-11-26T16:38:18.359Z,81.00
2018-11-26T16:40:46.837Z,80.90
2018-11-26T16:43:15.397Z,80.60
2018-11-26T16:45:44.095Z,80.80
2018-11-26T16:48:12.727Z,80.70
2018-11-26T16:50:41.477Z,81.00
2018-11-26T16:53:10.757Z,80.40
2018-11-26T16:55:39.422Z,80.60
2018-11-26T16:58:08.833Z,79.40
2018-11-26T17:00:37.880Z,80.70
2018-11-26T17:03:06.604Z,80.20
2018-11-26T17:05:38.166Z,79.80
2018-11-26T17:08:12.736Z,80.60
2018-11-26T17:10:42.946Z,80.90
2018-11-26T17:13:14.510Z,80.50
2018-11-26T17:15:43.169Z,80.70
2018-11-26T17:18:12.340Z,81.10
2018-11-26T17:20:41.587Z,80.80
2018-11-26T17:23:11.307Z,80.40
2018-11-26T17:25:40.969Z,81.10
2018-11-26T17:28:10.343Z,81.00
2018-11-26T17:30:40.207Z,79.70
2018-11-26T17:33:11.546Z,81.00
2018-11-26T17:35:39.969Z,79.30
2018-11-26T17:38:12.788Z,80.50
2018-11-26T17:40:41.198Z,81.00
2018-11-26T17:43:13.594Z,81.40
2018-11-26T17:45:42.024Z,80.60
2018-11-26T17:48:10.424Z,79.30
2018-11-26T17:50:41.406Z,80.30
2018-11-26T17:53:14.792Z,80.40
2018-11-26T17:55:55.506Z,80.50
2018-11-26T17:58:25.819Z,80.90
2018-11-26T18:01:05.432Z,81.10
2018-11-26T18:03:33.743Z,80.90
2018-11-26T18:06:02.055Z,80.70
2018-11-26T18:08:30.395Z,79.30
2018-11-26T18:10:58.705Z,79.70
2018-11-26T18:13:26.985Z,79.40
2018-11-26T18:15:55.390Z,79.00
2018-11-26T18:18:23.968Z,79.70
2018-11-26T18:20:52.079Z,79.60
2018-11-26T18:23:20.493Z,79.80
2018-11-26T18:25:48.933Z,80.40
2018-11-26T18:28:17.836Z,79.50
2018-11-26T18:30:49.997Z,80.10
2018-11-26T18:33:18.489Z,79.40
2018-11-26T18:35:47.955Z,79.20
2018-11-26T18:38:17.890Z,79.80
2018-11-26T18:40:50.372Z,79.90
2018-11-26T18:43:19.092Z,79.50
2018-11-26T18:45:47.552Z,78.50
2018-11-26T18:48:16.440Z,78.50
2018-11-26T18:50:45.300Z,78.90
2018-11-26T18:53:14.117Z,79.50
2018-11-26T18:55:43.137Z,78.60
2018-11-26T18:58:13.136Z,78.20
2018-11-26T19:00:48.740Z,78.20
2018-11-26T19:03:17.743Z,79.50
2018-11-26T19:05:49.315Z,79.30
2018-11-26T19:08:18.919Z,79.30
2018-11-26T19:10:58.787Z,78.90
2018-11-26T19:13:48.947Z,79.00
2018-11-26T19:16:21.439Z,78.90
2018-11-26T19:18:50.071Z,79.20
2018-11-26T19:21:19.387Z,78.30
2018-11-26T19:23:48.028Z,78.50
2018-11-26T19:26:17.520Z,78.10
2018-11-26T19:28:46.364Z,78.00
2018-11-26T19:31:29.862Z,77.90
2018-11-26T19:33:59.351Z,78.30
2018-11-26T19:36:36.386Z,78.70
2018-11-26T19:39:08.450Z,78.20
2018-11-26T19:41:37.574Z,78.30
2018-11-26T19:44:08.150Z,78.00
2018-11-26T19:46:36.821Z,78.70
2018-11-26T19:49:05.426Z,77.80
2018-11-26T19:51:35.059Z,78.70
2018-11-26T19:54:04.854Z,78.40
2018-11-26T19:56:33.448Z,77.50
2018-11-26T19:59:02.137Z,78.10
2018-11-26T20:01:31.641Z,77.50
2018-11-26T20:04:15.247Z,76.50
2018-11-26T20:06:43.697Z,77.30
2018-11-26T20:09:12.179Z,77.50
2018-11-26T20:11:40.835Z,77.80
2018-11-26T20:14:21.205Z,78.00
2018-11-26T20:16:44.071Z,77.60
2018-11-26T20:19:12.520Z,76.70
2018-11-26T20:21:41.188Z,77.60
2018-11-26T20:24:10.124Z,77.30
2018-11-26T20:26:38.467Z,76.60
2018-11-26T20:29:08.797Z,77.00
2018-11-26T20:31:37.337Z,76.90
2018-11-26T20:34:07.299Z,77.40
2018-11-26T20:36:35.872Z,76.20
2018-11-26T20:39:08.094Z,77.40
2018-11-26T20:41:37.116Z,77.20
2018-11-26T20:44:07.326Z,77.20
2018-11-26T20:46:36.507Z,76.50
2018-11-26T20:49:07.449Z,77.40
2018-11-26T20:51:36.372Z,76.80
2018-11-26T20:54:05.471Z,76.50
2018-11-26T20:56:34.765Z,76.00
2018-11-26T20:59:03.373Z,75.90
2018-11-26T21:01:31.754Z,76.00
2018-11-26T21:04:00.941Z,76.30
2018-11-26T21:06:29.525Z,77.40
2018-11-26T21:08:58.121Z,76.10
2018-11-26T21:11:26.609Z,77.50
2018-11-26T21:13:55.269Z,77.00
2018-11-26T21:16:24.697Z,77.10
2018-11-26T21:18:53.214Z,76.30
2018-11-26T21:21:22.277Z,75.90
2018-11-26T21:23:51.755Z,76.60
2018-11-26T21:26:20.664Z,76.70
2018-11-26T21:28:50.358Z,76.80
2018-11-26T21:31:18.881Z,76.10
2018-11-26T21:33:48.437Z,76.80
2018-11-26T21:36:17.608Z,76.30
2018-11-26T21:38:45.934Z,76.70
2018-11-26T21:41:14.425Z,76.50
2018-11-26T21:43:42.907Z,76.50
2018-11-26T21:46:16.686Z,76.00
2018-11-26T21:48:44.992Z,76.60
2018-11-26T21:51:13.471Z,76.60
2018-11-26T21:53:42.553Z,76.10
2018-11-26T21:56:10.819Z,76.70
2018-11-26T21:58:39.192Z,77.00
2018-11-26T22:01:09.451Z,76.50
2018-11-26T22:03:37.795Z,76.70
2018-11-26T22:06:06.446Z,76.80
2018-11-26T22:08:35.047Z,76.80
2018-11-26T22:11:03.498Z,76.80
2018-11-26T22:13:31.907Z,76.80
2018-11-26T22:16:00.195Z,76.40
2018-11-26T22:18:28.569Z,75.80
2018-11-26T22:20:56.974Z,76.00
2018-11-26T22:23:25.363Z,76.30
2018-11-26T22:25:53.684Z,75.80
2018-11-26T22:28:21.988Z,76.00
2018-11-26T22:30:50.344Z,77.00
2018-11-26T22:33:19.229Z,77.00
2018-11-26T22:35:47.631Z,76.60
2018-11-26T22:38:15.810Z,76.50
2018-11-26T22:40:44.318Z,76.60
2018-11-26T22:43:12.815Z,75.90
2018-11-26T22:45:41.242Z,76.40
2018-11-26T22:48:17.439Z,76.40
2018-11-26T22:50:46.329Z,76.80
2018-11-26T22:53:14.718Z,76.30
2018-11-26T22:55:44.314Z,76.70
2018-11-26T22:58:14.706Z,75.80
2018-11-26T23:00:50.997Z,76.00
2018-11-26T23:03:22.089Z,76.80
2018-11-26T23:05:50.531Z,76.40
2018-11-26T23:08:19.115Z,76.10
2018-11-26T23:10:47.696Z,76.30
2018-11-26T23:13:16.206Z,75.50
2018-11-26T23:15:45.409Z,75.60
2018-11-26T23:18:14.220Z,76.00
2018-11-26T23:20:42.741Z,76.20
2018-11-26T23:23:11.169Z,76.60
2018-11-26T23:25:39.769Z,75.90
2018-11-26T23:28:08.929Z,76.10
2018-11-26T23:30:37.446Z,75.50
2018-11-26T23:33:07.638Z,75.10
2018-11-26T23:35:36.174Z,75.20
2018-11-26T23:38:04.982Z,75.30
2018-11-26T23:40:34.513Z,76.40
2018-11-26T23:43:03.939Z,75.70
2018-11-26T23:45:32.563Z,76.10
2018-11-26T23:48:01.060Z,75.00
2018-11-26T23:50:29.646Z,75.20
2018-11-26T23:52:58.739Z,75.40
2018-11-26T23:55:27.319Z,74.80
2018-11-26T23:57:56.016Z,75.00
